Livestream

Livestream Schedule for Today 24 March 2017

Time Home Away Odds 1X2 Livestream
23:00 Trinidad & Tobago Panama 3.50 2.90 2.40 WATCH

Livestream Schedule for 25 March 2017

Time Home Away Odds 1X2 Livestream
01:00 Deportivo Cuenca Delfin SC 1.73 3.30 4.75 WATCH
02:30 USA Honduras 1.50 4.20 7.00 WATCH
05:00 Mito Hollyhock Ehime FC 2.60 3.00 2.90 WATCH
06:00 Tokyo Verdy FC Gifu 2.30 3.10 3.30 WATCH
06:00 Kyoto Sanga FC V-Varen Nagasaki 2.15 3.10 3.60 WATCH
06:35 Central Coast Mariners Adelaide United 2.70 3.60 2.40 WATCH
07:00 Shonan Bellmare JEF Utd Chiba 1.91 3.25 4.33 WATCH
08:00 Yokohama FC Tokushima Vortis 2.70 3.00 2.80 WATCH
08:50 Brisbane Roar Melbourne Victory 2.05 3.50 3.40 WATCH
12:15 Lincoln City Forest Green 2.25 3.40 3.10 WATCH
12:30 Dundee Utd St Mirren 2.10 3.50 3.30 WATCH
15:00 Valladolid Gimnastic 1.73 3.50 5.00 WATCH
17:00 Cittadella Spezia 2.20 3.20 3.40 WATCH
17:00 Numancia Rayo Vallecano 2.20 3.00 3.60 WATCH
17:00 Almeria Alcorcon 2.25 3.00 3.50 WATCH
18:00 New England Revolution Minnesota United 1.40 4.50 8.00 WATCH
19:00 Palmeiras Audax SP 1.40 4.50 5.75 WATCH
19:00 Banfield Union De Santa Fe 2.00 3.00 3.60 WATCH
19:00 Rosario Central CA Tigre 1.85 3.00 4.20 WATCH
19:30 Benevento Trapani 1.80 3.30 4.75 WATCH
19:30 Mallorca Levante 2.60 2.88 3.00 WATCH
19:45 Oviedo Girona 3.10 3.00 2.45 WATCH
20:00 New York Red Bulls Real Salt Lake 1.44 4.20 7.50 WATCH
20:30 Defensor Sporting Penarol 2.30 3.40 2.60 WATCH
21:00 San Lorenzo Quilmes 1.50 3.75 6.00 WATCH
21:15 Gimnasia LP Sarmiento 1.70 3.20 4.75 WATCH
21:30 Flamengo Vasco Da Gama RJ 1.70 3.50 4.20 WATCH
23:00 Racing Club Godoy Cruz 1.67 3.25 5.25 WATCH
23:30 Columbus Crew Portland Timbers 2.00 3.60 3.50 WATCH
23:30 Atletico Rafaela Estudiantes LP 3.25 3.00 2.20 WATCH

Livestream Schedule for 26 March 2017

Time Home Away Odds 1X2 Livestream
05:00 Zweigen Kanazawa Machida Zelvia 3.10 3.00 2.45 WATCH
05:00 Renofa Yamaguchi Kamatamare Sanuki 2.25 3.10 3.40 WATCH
05:00 Roasso Kumamoto Oita 3.40 3.00 2.30 WATCH
05:00 SKA Energia Khabarovsk FK Tyumen 2.00 3.10 3.40 WATCH
06:00 Montedio Yamagata Avispa Fukuoka 3.10 3.00 2.45 WATCH
06:00 Thespa Kusatsu Fagiano Okayama 3.80 3.00 2.15 WATCH
06:00 Matsumoto Y FC Nagoya Grampus 2.25 3.20 3.25 WATCH
07:00 Wellington Phoenix Newcastle Jets 2.60 3.60 2.50 WATCH
09:00 Perth Glory Sydney FC 3.10 3.80 2.10 WATCH
11:00 Getafe Lugo 1.85 3.40 4.33 WATCH
11:00 Sibir Novosibirsk Sokol Saratov 1.73 3.40 4.20 WATCH
11:30 Verona Pisa 1.62 3.40 6.50 WATCH
12:30 Scunthorpe Bradford 2.70 3.40 2.50 WATCH
12:45 Hobro IK Fremad Amager 1.67 3.60 5.25 WATCH
14:00 Carpi Perugia 2.30 2.88 3.60 WATCH
14:00 Latina Pro Vercelli 2.30 2.90 3.50 WATCH
14:00 Salernitana Ascoli 1.73 3.50 5.00 WATCH
14:00 Spal Frosinone 2.20 3.00 3.60 WATCH
14:00 Ternana Avellino 2.38 3.00 3.25 WATCH
14:00 Vicenza Brescia 1.80 3.40 4.75 WATCH
14:00 Virtus Entella Cesena 2.10 3.10 3.80 WATCH
14:00 FK Tosno Dinamo Moscow 2.50 3.00 2.63 WATCH
14:00 FK Khimki Shinnik Yaroslavl 2.40 2.88 2.88 WATCH
14:00 Kuban Krasnodar Neftekhimik Nizhnekamsk 1.50 3.60 6.00 WATCH
14:45 Doncaster Plymouth 1.80 3.75 5.00 WATCH
15:00 Cadiz Tenerife 2.05 3.10 4.00 WATCH
15:00 Mordovia Saransk Fakel Voronezh 2.60 2.88 2.63 WATCH
17:00 Reus Deportiu UCAM Murcia CF 2.15 2.88 4.00 WATCH
17:00 Mirandes Huesca 2.63 3.10 2.75 WATCH
17:00 Sevilla Atletico Cordoba 2.10 3.10 3.80 WATCH
17:30 CD Clan Juvenil CD River Plate Ecuador 1.95 3.20 3.50 WATCH
18:00 Macara Independiente del Valle 3.50 3.10 1.95 WATCH
19:30 Bari Novara 2.00 3.20 4.00 WATCH
19:30 Elche Real Zaragoza 2.10 3.20 3.60 WATCH
19:30 Nacional De Football Liverpool Montevideo 1.33 4.50 7.00 WATCH
20:00 Sao Paulo Corinthians 2.00 3.20 3.50 WATCH
20:00 Colon Lanus 3.30 2.90 2.15 WATCH
20:30 San Martin de San Juan Boca Juniors 5.25 3.25 1.67 WATCH
21:00 Fuerza Amarilla SC LDU Quito 2.30 3.00 3.00 WATCH
21:30 Barcelona Guayaquil Universidad Catolica del Ecuador 1.65 3.60 4.50 WATCH
22:30 Sao Bento Ponte Preta 2.90 3.20 2.20 WATCH
22:30 River Plate Belgrano 1.57 3.75 5.25 WATCH
22:30 Temperley Atlético Tucumán 2.75 3.00 2.50 WATCH

Copyright © 2017 AdBrothers - All Rights Reserved - Advertise on FootballPredictions.com - Suggested Sites

18 plusgambleawaresucuri verified

Logo Header Menu